createdAt,value
2019-05-21T00:02:08.645Z,11.70
2019-05-21T00:04:37.714Z,11.70
2019-05-21T00:07:06.822Z,11.70
2019-05-21T00:09:35.992Z,11.60
2019-05-21T00:12:05.255Z,11.70
2019-05-21T00:14:34.510Z,11.70
2019-05-21T00:17:03.709Z,11.80
2019-05-21T00:19:32.871Z,11.80
2019-05-21T00:22:01.966Z,11.80
2019-05-21T00:24:31.161Z,11.80
2019-05-21T00:27:00.312Z,11.90
2019-05-21T00:30:05.091Z,11.80
2019-05-21T00:33:10.051Z,11.80
2019-05-21T00:36:14.877Z,11.80
2019-05-21T00:39:19.651Z,11.80
2019-05-21T00:42:02.958Z,11.80
2019-05-21T00:44:39.730Z,11.70
2019-05-21T00:47:09.523Z,11.70
2019-05-21T00:49:38.614Z,11.70
2019-05-21T00:52:09.197Z,11.60
2019-05-21T00:54:38.680Z,11.70
2019-05-21T00:57:07.652Z,11.70
2019-05-21T00:59:36.791Z,11.70
2019-05-21T01:02:05.838Z,11.70
2019-05-21T01:04:34.919Z,11.70
2019-05-21T01:07:04.026Z,11.60
2019-05-21T01:09:33.115Z,11.60
2019-05-21T01:12:02.353Z,11.60
2019-05-21T01:14:31.462Z,9.90
2019-05-21T01:17:00.549Z,11.50
2019-05-21T01:19:29.690Z,11.50
2019-05-21T01:21:58.647Z,11.60
2019-05-21T01:24:27.663Z,11.50
2019-05-21T01:26:56.692Z,11.50
2019-05-21T01:29:25.725Z,11.50
2019-05-21T01:31:54.781Z,11.50
2019-05-21T01:34:23.790Z,11.40
2019-05-21T01:36:52.918Z,11.60
2019-05-21T01:39:22.048Z,11.50
2019-05-21T01:41:51.350Z,11.50
2019-05-21T01:44:20.458Z,11.50
2019-05-21T01:46:49.590Z,11.60
2019-05-21T01:49:18.649Z,11.50
2019-05-21T01:51:47.630Z,11.50
2019-05-21T01:54:16.616Z,11.50
2019-05-21T01:56:45.769Z,11.50
2019-05-21T01:59:14.921Z,11.50
2019-05-21T02:01:43.986Z,11.40
2019-05-21T02:04:13.108Z,11.50
2019-05-21T02:06:42.378Z,11.40
2019-05-21T02:09:11.435Z,11.50
2019-05-21T02:11:40.455Z,11.50
2019-05-21T02:14:09.508Z,11.50
2019-05-21T02:16:38.778Z,11.50
2019-05-21T02:19:07.967Z,11.50
2019-05-21T02:21:37.088Z,11.60
2019-05-21T02:24:06.330Z,11.50
2019-05-21T02:26:35.451Z,11.50
2019-05-21T02:29:04.611Z,11.50
2019-05-21T02:31:33.795Z,11.40
2019-05-21T02:34:03.187Z,11.50
2019-05-21T02:36:32.374Z,11.60
2019-05-21T02:39:01.617Z,11.50
2019-05-21T02:41:30.763Z,11.50
2019-05-21T02:43:59.836Z,11.50
2019-05-21T02:46:28.982Z,11.60
2019-05-21T02:48:58.275Z,11.60
2019-05-21T02:51:27.436Z,11.60
2019-05-21T02:53:56.544Z,11.60
2019-05-21T02:56:25.641Z,11.50
2019-05-21T02:58:54.671Z,11.60
2019-05-21T03:01:35.499Z,11.50
2019-05-21T03:04:04.498Z,11.50
2019-05-21T03:06:33.875Z,11.50
2019-05-21T03:09:03.004Z,11.40
2019-05-21T03:11:32.190Z,11.40
2019-05-21T03:14:01.786Z,11.50
2019-05-21T03:16:30.990Z,11.40
2019-05-21T03:19:00.121Z,11.40
2019-05-21T03:21:29.155Z,11.50
2019-05-21T03:23:58.173Z,11.40
2019-05-21T03:26:27.217Z,11.50
2019-05-21T03:28:56.214Z,11.50
2019-05-21T03:31:25.336Z,11.30
2019-05-21T03:33:54.541Z,11.30
2019-05-21T03:36:33.401Z,11.30
2019-05-21T03:38:54.291Z,11.40
2019-05-21T03:41:23.208Z,11.40
2019-05-21T03:43:52.208Z,11.50
2019-05-21T03:46:21.313Z,11.50
2019-05-21T03:48:50.314Z,11.30
2019-05-21T03:51:19.311Z,11.40
2019-05-21T03:53:48.369Z,11.40
2019-05-21T03:56:17.530Z,11.40
2019-05-21T03:58:46.598Z,11.20
2019-05-21T04:01:15.659Z,11.30
2019-05-21T04:03:44.704Z,11.20
2019-05-21T04:06:13.936Z,11.10
2019-05-21T04:08:43.131Z,11.00
2019-05-21T04:11:12.243Z,11.10
2019-05-21T04:13:41.327Z,11.20
2019-05-21T04:16:41.884Z,11.10
2019-05-21T04:19:18.012Z,10.90
2019-05-21T04:21:47.144Z,11.00
2019-05-21T04:24:16.208Z,10.90
2019-05-21T04:26:45.441Z,10.90
2019-05-21T04:29:14.756Z,10.90
2019-05-21T04:31:43.879Z,10.90
2019-05-21T04:34:13.035Z,10.80
2019-05-21T04:36:42.918Z,10.90
2019-05-21T04:39:12.127Z,10.80
2019-05-21T04:41:41.266Z,10.80
2019-05-21T04:44:10.363Z,10.70
2019-05-21T04:46:39.467Z,10.70
2019-05-21T04:49:08.854Z,10.80
2019-05-21T04:51:37.995Z,10.70
2019-05-21T04:54:07.164Z,10.70
2019-05-21T04:56:36.426Z,10.70
2019-05-21T04:59:05.642Z,10.80
2019-05-21T05:01:34.906Z,10.80
2019-05-21T05:04:04.805Z,10.70
2019-05-21T05:06:34.861Z,10.60
2019-05-21T05:09:04.955Z,10.60
2019-05-21T05:11:35.124Z,10.70
2019-05-21T05:14:04.799Z,10.80
2019-05-21T05:16:34.404Z,10.70
2019-05-21T05:19:03.588Z,10.60
2019-05-21T05:21:32.618Z,10.60
2019-05-21T05:24:01.781Z,10.60
2019-05-21T05:26:30.853Z,10.60
2019-05-21T05:28:59.958Z,10.60
2019-05-21T05:31:28.969Z,10.60
2019-05-21T05:33:58.024Z,10.60
2019-05-21T05:36:27.210Z,10.70
2019-05-21T05:38:56.483Z,10.70
2019-05-21T05:41:25.744Z,10.70
2019-05-21T05:43:55.097Z,10.70
2019-05-21T05:46:24.216Z,10.70
2019-05-21T05:49:01.686Z,10.70
2019-05-21T05:51:29.822Z,10.80
2019-05-21T05:53:58.955Z,10.70
2019-05-21T05:56:31.177Z,10.80
2019-05-21T05:59:00.447Z,10.80
2019-05-21T06:01:31.265Z,10.80
2019-05-21T06:04:00.352Z,10.90
2019-05-21T06:06:29.430Z,10.80
2019-05-21T06:08:59.141Z,10.80
2019-05-21T06:11:28.362Z,10.80
2019-05-21T06:13:57.555Z,10.80
2019-05-21T06:16:26.547Z,10.70
2019-05-21T06:18:55.648Z,10.80
2019-05-21T06:21:24.849Z,10.80
2019-05-21T06:23:54.052Z,10.80
2019-05-21T06:26:23.144Z,10.80
2019-05-21T06:28:56.740Z,10.80
2019-05-21T06:31:25.408Z,10.80
2019-05-21T06:33:54.438Z,10.80
2019-05-21T06:36:23.521Z,10.80
2019-05-21T06:38:52.650Z,11.00
2019-05-21T06:41:21.647Z,10.90
2019-05-21T06:43:50.657Z,10.90
2019-05-21T06:46:19.693Z,10.90
2019-05-21T06:48:48.540Z,11.00
2019-05-21T06:51:17.531Z,11.00
2019-05-21T06:53:46.628Z,11.00
2019-05-21T06:56:15.720Z,10.90
2019-05-21T06:58:44.904Z,11.00
2019-05-21T07:01:13.897Z,10.90
2019-05-21T07:03:43.086Z,10.90
2019-05-21T07:06:12.087Z,11.00
2019-05-21T07:08:41.355Z,10.90
2019-05-21T07:11:17.545Z,10.90
2019-05-21T07:13:46.271Z,11.00
2019-05-21T07:16:15.241Z,10.90
2019-05-21T07:18:44.233Z,10.80
2019-05-21T07:21:13.416Z,10.90
2019-05-21T07:23:42.613Z,11.00
2019-05-21T07:26:11.666Z,11.00
2019-05-21T07:28:40.782Z,11.00
2019-05-21T07:31:09.760Z,11.00
2019-05-21T07:33:38.872Z,11.20
2019-05-21T07:36:08.029Z,11.10
2019-05-21T07:38:52.057Z,11.10
2019-05-21T07:41:07.952Z,11.10
2019-05-21T07:43:37.120Z,11.20
2019-05-21T07:46:06.093Z,11.20
2019-05-21T07:48:35.058Z,11.10
2019-05-21T07:51:04.262Z,11.20
2019-05-21T07:53:33.389Z,11.20
2019-05-21T07:56:02.565Z,11.00
2019-05-21T07:58:31.698Z,11.10
2019-05-21T08:01:01.531Z,11.10
2019-05-21T08:03:31.377Z,11.10
2019-05-21T08:06:00.533Z,11.10
2019-05-21T08:08:29.445Z,11.10
2019-05-21T08:10:58.400Z,11.20
2019-05-21T08:13:27.462Z,11.10
2019-05-21T08:15:56.434Z,11.20
2019-05-21T08:18:25.450Z,11.20
2019-05-21T08:20:54.589Z,11.10
2019-05-21T08:23:23.576Z,11.20
2019-05-21T08:25:52.647Z,11.20
2019-05-21T08:28:21.869Z,11.10
2019-05-21T08:30:50.842Z,11.10
2019-05-21T08:33:19.909Z,11.10
2019-05-21T08:35:49.056Z,11.30
2019-05-21T08:38:18.031Z,11.30
2019-05-21T08:40:46.920Z,11.20
2019-05-21T08:43:16.010Z,11.20
2019-05-21T08:45:45.161Z,11.20
2019-05-21T08:48:14.335Z,11.30
2019-05-21T08:50:43.420Z,11.20
2019-05-21T08:53:12.426Z,11.30
2019-05-21T08:55:41.452Z,11.40
2019-05-21T08:58:11.356Z,11.40
2019-05-21T09:00:40.468Z,11.40
2019-05-21T09:03:09.423Z,11.50
2019-05-21T09:05:38.363Z,11.40
2019-05-21T09:08:07.554Z,11.40
2019-05-21T09:10:38.825Z,11.50
2019-05-21T09:13:07.888Z,11.60
2019-05-21T09:15:36.863Z,11.70
2019-05-21T09:18:05.860Z,11.80
2019-05-21T09:20:34.915Z,11.80
2019-05-21T09:23:03.966Z,11.60
2019-05-21T09:25:32.947Z,11.60
2019-05-21T09:28:01.996Z,11.50
2019-05-21T09:30:31.057Z,11.50
2019-05-21T09:33:00.135Z,11.60
2019-05-21T09:35:29.212Z,11.60
2019-05-21T09:37:58.261Z,11.60
2019-05-21T09:40:28.923Z,11.50
2019-05-21T09:42:57.930Z,11.50
2019-05-21T09:45:27.018Z,11.50
2019-05-21T09:47:56.221Z,11.60
2019-05-21T09:50:25.141Z,11.40
2019-05-21T09:52:54.141Z,11.50
2019-05-21T09:55:23.172Z,11.50
2019-05-21T09:58:17.292Z,11.60
2019-05-21T10:01:08.177Z,11.60
2019-05-21T10:03:40.422Z,11.70
2019-05-21T10:06:09.312Z,11.60
2019-05-21T10:08:38.386Z,11.60
2019-05-21T10:11:07.520Z,11.50
2019-05-21T10:13:36.500Z,11.40
2019-05-21T10:16:05.512Z,11.60
2019-05-21T10:18:34.563Z,11.60
2019-05-21T10:21:03.547Z,11.60
2019-05-21T10:23:32.533Z,11.60
2019-05-21T10:26:01.704Z,11.50
2019-05-21T10:28:30.676Z,11.50
2019-05-21T10:30:59.628Z,11.40
2019-05-21T10:33:28.622Z,11.50
2019-05-21T10:35:57.598Z,11.50
2019-05-21T10:38:26.591Z,11.60
2019-05-21T10:40:55.644Z,11.60
2019-05-21T10:43:24.526Z,11.50
2019-05-21T10:45:53.529Z,11.50
2019-05-21T10:48:22.537Z,11.50
2019-05-21T10:50:51.525Z,11.50
2019-05-21T10:53:20.522Z,11.50
2019-05-21T10:55:49.401Z,11.50
2019-05-21T10:58:18.539Z,11.50
2019-05-21T11:00:48.836Z,11.50
2019-05-21T11:03:21.106Z,11.50
2019-05-21T11:06:08.609Z,11.50
2019-05-21T11:08:25.088Z,11.60
2019-05-21T11:10:54.089Z,11.80
2019-05-21T11:13:23.088Z,11.90
2019-05-21T11:15:52.133Z,11.80
2019-05-21T11:18:21.223Z,11.90
2019-05-21T11:20:50.356Z,11.70
2019-05-21T11:23:19.535Z,11.80
2019-05-21T11:25:48.501Z,11.70
2019-05-21T11:28:17.601Z,11.70
2019-05-21T11:30:46.751Z,11.90
2019-05-21T11:33:15.795Z,11.80
2019-05-21T11:35:44.904Z,11.80
2019-05-21T11:38:14.147Z,11.80
2019-05-21T11:40:43.478Z,11.70
2019-05-21T11:43:12.586Z,11.70
2019-05-21T11:45:41.535Z,11.60
2019-05-21T11:48:10.557Z,11.80
2019-05-21T11:50:39.771Z,11.70
2019-05-21T11:53:08.775Z,11.60
2019-05-21T11:55:37.828Z,11.70
2019-05-21T11:58:07.057Z,11.50
2019-05-21T12:00:36.356Z,11.50
2019-05-21T12:03:05.414Z,11.30
2019-05-21T12:05:34.411Z,11.50
2019-05-21T12:08:03.416Z,11.50
2019-05-21T12:10:32.493Z,11.50
2019-05-21T12:13:01.616Z,11.50
2019-05-21T12:15:30.753Z,11.50
2019-05-21T12:17:59.691Z,11.50
2019-05-21T12:20:36.883Z,11.40
2019-05-21T12:22:59.493Z,11.50
2019-05-21T12:25:28.531Z,11.50
2019-05-21T12:27:57.636Z,11.40
2019-05-21T12:30:26.610Z,11.40
2019-05-21T12:32:55.624Z,11.40
2019-05-21T12:35:24.636Z,11.50
2019-05-21T12:37:53.737Z,11.50
2019-05-21T12:40:24.666Z,11.40
2019-05-21T12:42:53.837Z,11.30
2019-05-21T12:45:22.941Z,11.30
2019-05-21T12:47:51.968Z,11.30
2019-05-21T12:50:21.161Z,11.20
2019-05-21T12:52:50.368Z,11.20
2019-05-21T12:55:19.394Z,11.10
2019-05-21T12:57:48.411Z,11.10
2019-05-21T13:00:17.425Z,11.20
2019-05-21T13:02:46.538Z,11.20
2019-05-21T13:05:15.719Z,11.00
2019-05-21T13:07:44.753Z,11.00
2019-05-21T13:10:13.897Z,11.00
2019-05-21T13:12:42.943Z,11.10
2019-05-21T13:15:12.036Z,11.10
2019-05-21T13:17:41.163Z,11.00
2019-05-21T13:20:10.369Z,11.00
2019-05-21T13:22:39.353Z,11.00
2019-05-21T13:25:08.439Z,11.10
2019-05-21T13:27:37.747Z,11.00
2019-05-21T13:30:06.725Z,10.90
2019-05-21T13:32:35.736Z,11.00
2019-05-21T13:35:05.222Z,11.10
2019-05-21T13:37:34.260Z,11.00
2019-05-21T13:40:03.362Z,11.00
2019-05-21T13:42:32.388Z,11.00
2019-05-21T13:45:01.528Z,11.00
2019-05-21T13:47:30.553Z,11.00
2019-05-21T13:49:59.630Z,11.00
2019-05-21T13:52:28.960Z,11.10
2019-05-21T13:54:57.997Z,11.10
2019-05-21T13:57:27.272Z,10.90
2019-05-21T13:59:56.310Z,10.90
2019-05-21T14:02:25.328Z,10.90
2019-05-21T14:04:54.435Z,11.00
2019-05-21T14:07:23.462Z,11.00
2019-05-21T14:10:12.538Z,10.90
2019-05-21T14:12:23.436Z,11.20
2019-05-21T14:14:52.565Z,11.00
2019-05-21T14:17:21.731Z,11.00
2019-05-21T14:19:50.939Z,11.10
2019-05-21T14:22:20.043Z,11.10
2019-05-21T14:24:49.126Z,11.10
2019-05-21T14:27:18.141Z,11.10
2019-05-21T14:29:47.180Z,11.20
2019-05-21T14:32:16.237Z,11.10
2019-05-21T14:35:00.369Z,11.20
2019-05-21T14:37:15.999Z,11.10
2019-05-21T14:39:45.121Z,11.20
2019-05-21T14:42:14.336Z,11.10
2019-05-21T14:44:43.294Z,11.20
2019-05-21T14:47:12.319Z,11.30
2019-05-21T14:49:41.504Z,11.20
2019-05-21T14:52:10.557Z,11.20
2019-05-21T14:54:39.643Z,11.20
2019-05-21T14:57:12.323Z,11.20
2019-05-21T14:59:41.579Z,11.30
2019-05-21T15:02:10.655Z,11.10
2019-05-21T15:04:39.926Z,11.30
2019-05-21T15:07:09.190Z,11.30
2019-05-21T15:09:38.255Z,11.30
2019-05-21T15:12:07.352Z,11.40
2019-05-21T15:14:36.433Z,11.30
2019-05-21T15:17:05.529Z,11.30
2019-05-21T15:19:34.649Z,11.40
2019-05-21T15:22:03.735Z,11.40
2019-05-21T15:24:33.578Z,11.60
2019-05-21T15:27:02.772Z,11.60
2019-05-21T15:29:31.736Z,11.40
2019-05-21T15:32:00.739Z,11.70
2019-05-21T15:34:29.798Z,11.70
2019-05-21T15:36:58.968Z,11.70
2019-05-21T15:39:27.921Z,11.80
2019-05-21T15:41:56.935Z,11.80
2019-05-21T15:44:25.887Z,11.80
2019-05-21T15:46:54.974Z,11.70
2019-05-21T15:49:35.561Z,11.70
2019-05-21T15:51:54.732Z,11.70
2019-05-21T15:54:23.721Z,11.70
2019-05-21T15:56:52.679Z,11.60
2019-05-21T15:59:21.850Z,11.60
2019-05-21T16:01:50.879Z,11.70
2019-05-21T16:04:20.066Z,11.80
2019-05-21T16:06:49.201Z,11.70
2019-05-21T16:09:18.264Z,11.70
2019-05-21T16:11:47.292Z,11.70
2019-05-21T16:14:16.281Z,11.70
2019-05-21T16:16:45.556Z,11.60
2019-05-21T16:19:14.662Z,11.70
2019-05-21T16:21:43.748Z,11.60
2019-05-21T16:24:12.845Z,11.50
2019-05-21T16:26:41.962Z,11.50
2019-05-21T16:29:10.986Z,11.30
2019-05-21T16:31:40.106Z,11.30
2019-05-21T16:34:09.318Z,11.40
2019-05-21T16:36:38.373Z,11.40
2019-05-21T16:39:08.302Z,11.40
2019-05-21T16:41:44.595Z,11.40
2019-05-21T16:44:08.200Z,11.40
2019-05-21T16:46:37.207Z,11.40
2019-05-21T16:49:06.272Z,11.40
2019-05-21T16:51:35.275Z,11.40
2019-05-21T16:54:04.270Z,11.40
2019-05-21T16:56:33.270Z,11.40
2019-05-21T16:59:02.253Z,11.40
2019-05-21T17:01:31.618Z,11.50
2019-05-21T17:04:00.727Z,11.50
2019-05-21T17:06:29.718Z,11.50
2019-05-21T17:08:58.713Z,11.50
2019-05-21T17:11:27.643Z,11.60
2019-05-21T17:13:56.666Z,11.50
2019-05-21T17:16:25.710Z,11.50
2019-05-21T17:18:54.670Z,11.40
2019-05-21T17:21:23.706Z,11.50
2019-05-21T17:23:52.689Z,11.50
2019-05-21T17:26:21.707Z,11.50
2019-05-21T17:28:50.622Z,11.50
2019-05-21T17:31:19.609Z,11.40
2019-05-21T17:33:48.653Z,11.40
2019-05-21T17:36:17.655Z,11.30
2019-05-21T17:38:46.740Z,11.40
2019-05-21T17:41:15.825Z,11.30
2019-05-21T17:43:44.990Z,11.30
2019-05-21T17:46:14.055Z,11.40
2019-05-21T17:48:43.055Z,11.30
2019-05-21T17:51:12.160Z,11.30
2019-05-21T17:53:41.147Z,11.60
2019-05-21T17:56:10.256Z,11.20
2019-05-21T17:58:39.257Z,11.30
2019-05-21T18:01:09.749Z,11.30
2019-05-21T18:03:39.701Z,11.30
2019-05-21T18:06:08.918Z,11.30
2019-05-21T18:08:38.236Z,11.20
2019-05-21T18:11:07.330Z,11.20
2019-05-21T18:13:37.185Z,11.20
2019-05-21T18:16:08.015Z,11.20
2019-05-21T18:18:36.980Z,11.30
2019-05-21T18:21:07.809Z,11.20
2019-05-21T18:23:37.640Z,11.20
2019-05-21T18:26:06.738Z,11.10
2019-05-21T18:28:36.490Z,11.10
2019-05-21T18:31:06.435Z,11.10
2019-05-21T18:33:35.712Z,11.10
2019-05-21T18:36:07.864Z,11.10
2019-05-21T18:38:37.114Z,11.10
2019-05-21T18:41:06.221Z,11.10
2019-05-21T18:43:35.326Z,11.10
2019-05-21T18:46:05.965Z,11.10
2019-05-21T18:48:35.097Z,12.90
2019-05-21T18:51:04.588Z,11.00
2019-05-21T18:53:33.578Z,11.10
2019-05-21T18:56:02.657Z,11.10
2019-05-21T18:58:31.824Z,10.90
2019-05-21T19:01:00.928Z,11.00
2019-05-21T19:03:30.020Z,11.00
2019-05-21T19:05:59.130Z,11.00
2019-05-21T19:08:28.334Z,11.00
2019-05-21T19:10:57.291Z,11.10
2019-05-21T19:13:26.272Z,10.90
2019-05-21T19:15:55.327Z,11.00
2019-05-21T19:18:24.491Z,11.00
2019-05-21T19:20:53.648Z,11.00
2019-05-21T19:23:22.754Z,11.00
2019-05-21T19:25:51.694Z,11.00
2019-05-21T19:28:20.794Z,11.10
2019-05-21T19:30:49.862Z,11.10
2019-05-21T19:33:18.877Z,11.10
2019-05-21T19:35:47.896Z,11.10
2019-05-21T19:38:17.444Z,11.10
2019-05-21T19:40:46.520Z,10.90
2019-05-21T19:43:15.625Z,11.00
2019-05-21T19:45:44.634Z,10.90
2019-05-21T19:48:13.801Z,10.90
2019-05-21T19:50:42.960Z,10.90
2019-05-21T19:53:11.988Z,10.90
2019-05-21T19:55:41.073Z,10.80
2019-05-21T19:58:10.162Z,10.90
2019-05-21T20:00:46.308Z,10.90
2019-05-21T20:03:15.376Z,10.90
2019-05-21T20:05:44.764Z,10.90
2019-05-21T20:08:14.126Z,10.90
2019-05-21T20:10:43.198Z,11.00
2019-05-21T20:13:12.166Z,11.00
2019-05-21T20:15:41.850Z,11.00
2019-05-21T20:18:10.956Z,11.10
2019-05-21T20:20:40.186Z,11.00
2019-05-21T20:23:10.403Z,11.10
2019-05-21T20:25:53.803Z,11.10
2019-05-21T20:28:10.886Z,11.10
2019-05-21T20:30:44.436Z,11.10
2019-05-21T20:33:12.133Z,11.10
2019-05-21T20:35:41.351Z,11.10
2019-05-21T20:38:12.244Z,11.10
2019-05-21T20:40:41.455Z,11.00
2019-05-21T20:43:10.763Z,11.00
2019-05-21T20:45:43.311Z,11.00
2019-05-21T20:48:14.675Z,10.90
2019-05-21T20:50:44.299Z,11.00
2019-05-21T20:53:13.466Z,11.00
2019-05-21T20:55:42.520Z,11.00
2019-05-21T20:58:11.971Z,10.90
2019-05-21T21:00:56.713Z,10.90
2019-05-21T21:03:25.914Z,10.80
2019-05-21T21:05:54.961Z,10.80
2019-05-21T21:08:27.832Z,11.00
2019-05-21T21:10:57.159Z,10.80
2019-05-21T21:13:26.173Z,10.90
2019-05-21T21:15:55.181Z,10.80
2019-05-21T21:18:25.031Z,10.80
2019-05-21T21:20:53.981Z,10.80
2019-05-21T21:23:24.674Z,10.70
2019-05-21T21:25:54.126Z,10.80
2019-05-21T21:28:23.271Z,10.70
2019-05-21T21:30:52.333Z,10.70
2019-05-21T21:33:21.496Z,10.80
2019-05-21T21:35:50.948Z,10.60
2019-05-21T21:38:23.684Z,10.80
2019-05-21T21:40:52.711Z,10.80
2019-05-21T21:43:21.718Z,12.70
2019-05-21T21:45:50.903Z,10.90
2019-05-21T21:48:20.095Z,10.80
2019-05-21T21:50:50.204Z,10.80
2019-05-21T21:53:19.668Z,10.90
2019-05-21T21:55:48.717Z,10.90
2019-05-21T21:58:17.872Z,10.90
2019-05-21T22:01:25.496Z,10.90
2019-05-21T22:03:56.292Z,10.80
2019-05-21T22:06:25.440Z,10.90
2019-05-21T22:08:54.565Z,10.90
2019-05-21T22:11:23.669Z,10.90
2019-05-21T22:13:52.864Z,10.90
2019-05-21T22:16:21.971Z,10.90
2019-05-21T22:18:51.314Z,11.00
2019-05-21T22:24:48.200Z,11.00
2019-05-21T22:27:17.260Z,11.10
2019-05-21T22:29:46.253Z,11.10
2019-05-21T22:32:16.750Z,11.10
2019-05-21T22:34:45.919Z,11.10
2019-05-21T22:37:16.514Z,11.00
2019-05-21T22:39:47.966Z,10.90
2019-05-21T22:42:17.887Z,11.00
2019-05-21T22:44:46.930Z,10.90
2019-05-21T22:47:16.066Z,10.90
2019-05-21T22:49:45.118Z,11.00
2019-05-21T22:52:14.300Z,10.90
2019-05-21T22:54:43.379Z,10.90
2019-05-21T22:57:12.434Z,10.80
2019-05-21T22:59:41.560Z,10.90
2019-05-21T23:02:14.956Z,10.80
2019-05-21T23:04:44.050Z,10.80
2019-05-21T23:07:13.175Z,10.80
2019-05-21T23:09:42.160Z,10.70
2019-05-21T23:12:11.257Z,10.70
2019-05-21T23:14:40.318Z,10.70
2019-05-21T23:17:10.033Z,10.80
2019-05-21T23:19:39.234Z,10.80
2019-05-21T23:22:09.632Z,10.70
2019-05-21T23:24:39.199Z,10.60
2019-05-21T23:27:11.116Z,10.60
2019-05-21T23:29:40.194Z,10.70
2019-05-21T23:32:09.322Z,10.70
2019-05-21T23:34:39.540Z,10.70
2019-05-21T23:37:15.532Z,10.80
2019-05-21T23:39:45.830Z,10.80
2019-05-21T23:42:28.621Z,10.70
2019-05-21T23:44:45.641Z,10.70
2019-05-21T23:47:16.003Z,10.60
2019-05-21T23:49:45.073Z,10.70
2019-05-21T23:52:14.224Z,10.80
2019-05-21T23:54:43.206Z,10.70
2019-05-21T23:57:16.177Z,10.80
2019-05-21T23:59:45.449Z,10.80
